Nearby METAR Reports

 

LIBV - Gioia Del Colle, Italy
Distance from station: PdPdWs 15km
Aktualizacja: 20/09/2018 15:55
NOT Current
Few Clouds
Few Clouds
 Wiatr z Pn
Wiatr: Pn 13 km/h
Temperatura: 23°C
Punkt Rosy: 21°C
Wilgotność: 89%
Ciśnienie: 1017 hPa
Clouds: Few Clouds
Visibility: 8 km
Cloud details: Częściowe zachmurzenie 914 m
Few Clouds 1219 m
2018/09/20 13:55 LIBV 201355Z 01007KT 8000 SCT030 FEW040TCU 23/21 Q1017 RMK BKN SCT090 VIS MIN 8000 WIND THR32 ////KT WIND THR14 02006KT BLU
LIBD - Bari/Palese Macc, Italy
Distance from station: PnPnZd 26km
Aktualizacja: 24/09/2018 21:50
Częściowe zachmurzenie
Częściowe zachmurzenie
 Wiatr z Pn
Wiatr: Pn 28 km/h
Temperatura: 21°C
Punkt Rosy: 13°C
Wilgotność: 60%
Ciśnienie: 1020 hPa
Clouds: Częściowe zachmurzenie
Visibility: 10 km
Cloud details: Częściowe zachmurzenie 762 m
2018/09/24 19:50 LIBD 241950Z 01015KT 9999 SCT025 21/13 Q1020
LIBH - Marina Di Ginosa, Italy
Distance from station: Pd 53km
Aktualizacja: 20/09/2018 15:55
NOT Current
Few Clouds
Few Clouds
 Wiatr z PdWs
Wiatr: PdWs 6 km/h
Temperatura: 30°C
Heat Index: 31°C
Punkt Rosy: 18°C
Wilgotność: 49%
Ciśnienie: 1016 hPa
Clouds: Few Clouds
Visibility: 10 km
Cloud details: Few Clouds 457 m
2018/09/20 13:55 LIBH 201355Z 14003KT 9999 FEW015TCU 30/18 Q1016 RMK BKN BKN070 QUK 1 QUL 1 S VIS MAR 20 KM VIS MIN 9999
 
LIBG - Grottaglie(Civ/A, Italy
Distance from station: PdWs 61km
Aktualizacja: 24/09/2018 19:50
NOT Current
Bezchmurnie
Bezchmurnie
 Wiatr z PnWs
Wiatr: PnWs 7 km/h
Temperatura: 25°C
Punkt Rosy: 18°C
Wilgotność: 65%
Ciśnienie: 1014 hPa
Podsumowanie: Bezchmurnie
Visibility: greater than 10 km
2018/09/24 17:50 LIBG 241750Z 04004KT 360V070 CAVOK 25/18 Q1014
LIBR - Brindisi/Casale, Italy
Distance from station: WsPdWs 96km
Aktualizacja: 24/09/2018 21:50
Bezchmurnie
Bezchmurnie
 Wiatr z Pn
Wiatr: Pn 15 km/h
Temperatura: 25°C
Punkt Rosy: 21°C
Wilgotność: 79%
Ciśnienie: 1016 hPa
Podsumowanie: Bezchmurnie
Visibility: greater than 10 km
2018/09/24 19:50 LIBR 241950Z 35008KT CAVOK 25/21 Q1016
LIBA - Amendola (it-Afb, Italy
Distance from station: PnZd 118km
Aktualizacja: 20/09/2018 16:14
NOT Current
Few Clouds
Few Clouds
 Wiatr z PnPnZd
Wiatr: PnPnZd 6 km/h
Temperatura: 26°C
Punkt Rosy: 23°C
Wilgotność: 84%
Ciśnienie: 1016 hPa
Clouds: Few Clouds
Visibility: 8 km
Cloud details: Few Clouds 914 m
Few Clouds 1067 m
2018/09/20 14:14 LIBA 201414Z 03003KT 8000 FEW030 FEW035CB 26/23 Q1016 RETS RMK BKN SCT090 VIS MIN 8000 WIND THR11 04003KT WIND THR29 /////KT BLU
 
LIBF - Foggia/Gino Lisa, Italy
Distance from station: ZdPnZd 126km
Aktualizacja: 24/09/2018 17:50
NOT Current
Few Clouds
Few Clouds
 Wiatr z PnPnZd
Wiatr: PnPnZd 31 km/h
Temperatura: 26°C
Punkt Rosy: 19°C
Wilgotność: 65%
Ciśnienie: 1014 hPa
Clouds: Few Clouds
Visibility: 10 km
Cloud details: Few Clouds 1219 m
2018/09/24 15:50 LIBF 241550Z 33017KT 9999 FEW040 26/19 Q1014
LIBN - Lecce (it-Afb), Italy
Distance from station: PdWs 132km
Aktualizacja: 20/09/2018 15:55
NOT Current
Few Clouds
Few Clouds
 Wiatr z PnPnZd
Wiatr: PnPnZd 15 km/h
Temperatura: 28°C
Heat Index: 29°C
Punkt Rosy: 19°C
Wilgotność: 58%
Ciśnienie: 1016 hPa
Clouds: Few Clouds
Visibility: 10 km
Cloud details: Few Clouds 762 m
2018/09/20 13:55 LIBN 201355Z 02008KT 9999 FEW025 28/19 Q1016 RMK SCT VIS MIN 9999 WIND THR14 03008KT WIND THR32 36009KT BLU